createdAt,value
2018-07-04T00:01:21.307Z,18.23
2018-07-04T00:04:01.391Z,18.18
2018-07-04T00:06:41.483Z,18.13
2018-07-04T00:09:21.604Z,18.07
2018-07-04T00:12:01.817Z,18.01
2018-07-04T00:14:42.309Z,17.97
2018-07-04T00:17:22.517Z,17.89
2018-07-04T00:20:02.632Z,17.85
2018-07-04T00:22:42.802Z,17.80
2018-07-04T00:25:23.348Z,17.77
2018-07-04T00:28:03.437Z,17.69
2018-07-04T00:30:43.740Z,17.65
2018-07-04T00:33:24.457Z,17.60
2018-07-04T00:36:04.572Z,17.54
2018-07-04T00:38:45.029Z,17.50
2018-07-04T00:41:25.218Z,17.46
2018-07-04T00:44:05.384Z,17.40
2018-07-04T00:46:45.630Z,17.35
2018-07-04T00:49:26.113Z,17.30
2018-07-04T00:52:06.309Z,17.23
2018-07-04T00:54:46.375Z,16.96
2018-07-04T00:57:26.534Z,17.14
2018-07-04T01:00:06.686Z,17.10
2018-07-04T01:02:47.196Z,17.06
2018-07-04T01:05:27.249Z,17.03
2018-07-04T01:08:07.393Z,16.96
2018-07-04T01:10:47.471Z,16.90
2018-07-04T01:13:30.385Z,16.85
2018-07-04T01:16:10.482Z,16.81
2018-07-04T01:18:50.635Z,16.78
2018-07-04T01:21:31.122Z,16.75
2018-07-04T01:24:11.225Z,16.69
2018-07-04T01:26:51.616Z,16.66
2018-07-04T01:29:31.990Z,16.62
2018-07-04T01:32:12.242Z,16.57
2018-07-04T01:34:52.542Z,16.52
2018-07-04T01:37:37.459Z,16.47
2018-07-04T01:40:17.593Z,16.43
2018-07-04T01:42:57.859Z,16.38
2018-07-04T01:45:38.396Z,16.35
2018-07-04T01:48:18.601Z,16.31
2018-07-04T01:50:58.822Z,16.29
2018-07-04T01:53:39.089Z,16.26
2018-07-04T01:56:19.793Z,16.21
2018-07-04T01:59:00.354Z,16.17
2018-07-04T02:01:40.509Z,16.13
2018-07-04T02:04:20.702Z,16.09
2018-07-04T02:07:01.216Z,16.04
2018-07-04T02:09:41.271Z,16.00
2018-07-04T02:12:21.499Z,15.98
2018-07-04T02:15:01.598Z,15.94
2018-07-04T02:17:41.732Z,15.91
2018-07-04T02:20:22.179Z,15.86
2018-07-04T02:23:02.394Z,15.82
2018-07-04T02:25:42.467Z,15.79
2018-07-04T02:28:22.799Z,15.75
2018-07-04T02:31:03.189Z,15.71
2018-07-04T02:33:43.741Z,15.68
2018-07-04T02:36:23.933Z,15.66
2018-07-04T02:39:05.292Z,15.63
2018-07-04T02:41:45.526Z,15.59
2018-07-04T02:44:25.625Z,15.55
2018-07-04T02:47:06.153Z,15.50
2018-07-04T02:49:46.313Z,15.45
2018-07-04T02:52:26.489Z,15.41
2018-07-04T02:55:06.631Z,15.37
2018-07-04T02:57:47.011Z,15.34
2018-07-04T03:00:27.414Z,15.30
2018-07-04T03:03:07.598Z,15.27
2018-07-04T03:05:47.984Z,15.25
2018-07-04T03:08:28.151Z,15.20
2018-07-04T03:11:08.417Z,15.17
2018-07-04T03:13:48.522Z,15.15
2018-07-04T03:16:28.621Z,15.14
2018-07-04T03:19:08.710Z,15.12
2018-07-04T03:21:49.021Z,15.12
2018-07-04T03:24:29.275Z,15.10
2018-07-04T03:27:09.362Z,15.11
2018-07-04T03:29:49.480Z,15.10
2018-07-04T03:32:29.982Z,15.09
2018-07-04T03:35:10.240Z,15.09
2018-07-04T03:37:50.497Z,15.08
2018-07-04T03:40:31.137Z,15.10
2018-07-04T03:43:11.281Z,14.87
2018-07-04T03:45:51.493Z,15.12
2018-07-04T03:48:31.750Z,15.14
2018-07-04T03:51:12.100Z,15.14
2018-07-04T03:53:52.270Z,15.15
2018-07-04T03:56:32.323Z,15.16
2018-07-04T03:59:12.713Z,15.15
2018-07-04T04:01:52.942Z,15.18
2018-07-04T04:04:33.490Z,15.17
2018-07-04T04:07:13.656Z,15.23
2018-07-04T04:09:54.278Z,15.24
2018-07-04T04:12:34.461Z,15.30
2018-07-04T04:15:14.689Z,15.36
2018-07-04T04:17:55.152Z,15.39
2018-07-04T04:20:35.286Z,15.43
2018-07-04T04:23:15.882Z,15.49
2018-07-04T04:25:56.305Z,15.54
2018-07-04T04:28:36.365Z,15.62
2018-07-04T04:31:16.488Z,15.67
2018-07-04T04:33:56.602Z,15.71
2018-07-04T04:36:37.141Z,15.75
2018-07-04T04:39:17.233Z,15.82
2018-07-04T04:41:57.341Z,15.90
2018-07-04T04:44:37.580Z,15.92
2018-07-04T04:47:17.690Z,15.97
2018-07-04T04:49:57.742Z,16.03
2018-07-04T04:52:38.276Z,16.09
2018-07-04T04:55:18.464Z,16.14
2018-07-04T04:57:58.565Z,16.23
2018-07-04T05:00:38.829Z,16.27
2018-07-04T05:03:19.568Z,16.32
2018-07-04T05:05:59.658Z,16.39
2018-07-04T05:08:40.161Z,16.47
2018-07-04T05:11:20.433Z,16.55
2018-07-04T05:14:00.531Z,16.61
2018-07-04T05:16:40.587Z,16.70
2018-07-04T05:19:20.802Z,16.84
2018-07-04T05:22:01.312Z,16.91
2018-07-04T05:24:41.413Z,16.95
2018-07-04T05:27:21.533Z,17.02
2018-07-04T05:30:02.695Z,17.08
2018-07-04T05:32:43.437Z,17.18
2018-07-04T05:35:23.698Z,17.26
2018-07-04T05:38:04.081Z,17.39
2018-07-04T05:40:44.200Z,17.49
2018-07-04T05:43:24.276Z,17.59
2018-07-04T05:46:04.427Z,17.79
2018-07-04T05:48:44.997Z,17.90
2018-07-04T05:51:25.369Z,17.97
2018-07-04T05:54:05.737Z,18.34
2018-07-04T05:56:46.254Z,18.37
2018-07-04T05:59:26.482Z,18.38
2018-07-04T06:02:06.597Z,18.47
2018-07-04T06:04:46.769Z,18.52
2018-07-04T06:07:27.206Z,18.59
2018-07-04T06:10:07.269Z,18.88
2018-07-04T06:12:49.387Z,19.28
2018-07-04T06:15:29.433Z,19.66
2018-07-04T06:18:09.913Z,19.89
2018-07-04T06:20:50.086Z,20.25
2018-07-04T06:23:30.373Z,20.37
2018-07-04T06:26:10.863Z,20.28
2018-07-04T06:28:51.198Z,20.23
2018-07-04T06:31:31.272Z,20.25
2018-07-04T06:34:11.497Z,20.29
2018-07-04T06:36:51.546Z,20.51
2018-07-04T06:39:19.565Z,20.67
2018-07-04T06:41:47.487Z,20.71
2018-07-04T06:44:15.700Z,20.76
2018-07-04T06:46:43.962Z,20.88
2018-07-04T06:49:12.031Z,21.22
2018-07-04T06:51:40.180Z,21.24
2018-07-04T06:54:08.221Z,21.30
2018-07-04T06:56:36.454Z,21.47
2018-07-04T06:59:04.378Z,21.71
2018-07-04T07:01:32.486Z,21.79
2018-07-04T07:04:12.705Z,21.83
2018-07-04T07:06:53.153Z,21.95
2018-07-04T07:09:33.508Z,22.04
2018-07-04T07:12:13.586Z,22.28
2018-07-04T07:14:53.931Z,22.45
2018-07-04T07:17:34.277Z,22.53
2018-07-04T07:20:14.529Z,22.63
2018-07-04T07:22:54.628Z,22.73
2018-07-04T07:25:34.778Z,22.86
2018-07-04T07:28:16.713Z,23.07
2018-07-04T07:30:57.543Z,23.17
2018-07-04T07:33:37.693Z,23.23
2018-07-04T07:36:18.234Z,23.41
2018-07-04T07:38:58.479Z,23.47
2018-07-04T07:41:38.734Z,23.51
2018-07-04T07:44:19.285Z,23.65
2018-07-04T07:46:59.549Z,23.81
2018-07-04T07:49:39.590Z,24.05
2018-07-04T07:52:19.827Z,24.25
2018-07-04T07:55:00.262Z,24.44
2018-07-04T07:57:40.389Z,24.65
2018-07-04T08:00:20.421Z,24.84
2018-07-04T08:03:00.590Z,25.03
2018-07-04T08:05:40.808Z,25.12
2018-07-04T08:08:20.929Z,25.26
2018-07-04T08:11:01.705Z,25.36
2018-07-04T08:13:41.921Z,25.39
2018-07-04T08:16:22.221Z,25.44
2018-07-04T08:19:02.297Z,25.52
2018-07-04T08:21:42.461Z,25.76
2018-07-04T08:24:22.543Z,25.95
2018-07-04T08:27:02.797Z,26.12
2018-07-04T08:29:43.337Z,26.27
2018-07-04T08:32:23.413Z,26.35
2018-07-04T08:35:03.668Z,26.42
2018-07-04T08:37:44.025Z,26.51
2018-07-04T08:40:24.235Z,26.68
2018-07-04T08:43:04.426Z,26.88
2018-07-04T08:45:44.531Z,27.01
2018-07-04T08:48:24.614Z,27.24
2018-07-04T08:51:04.705Z,27.41
2018-07-04T08:53:45.655Z,27.54
2018-07-04T08:56:26.436Z,27.64
2018-07-04T08:59:06.492Z,27.76
2018-07-04T09:01:46.993Z,27.87
2018-07-04T09:04:27.133Z,27.97
2018-07-04T09:07:07.518Z,28.02
2018-07-04T09:09:47.581Z,28.16
2018-07-04T09:12:27.815Z,28.33
2018-07-04T09:15:08.253Z,28.39
2018-07-04T09:17:48.818Z,28.59
2018-07-04T09:20:29.154Z,28.61
2018-07-04T09:23:09.355Z,28.70
2018-07-04T09:25:49.430Z,28.63
2018-07-04T09:28:29.574Z,28.68
2018-07-04T09:31:09.622Z,28.89
2018-07-04T09:33:49.995Z,28.77
2018-07-04T09:36:32.358Z,28.77
2018-07-04T09:39:13.258Z,28.87
2018-07-04T09:41:53.326Z,29.02
2018-07-04T09:44:33.466Z,29.10
2018-07-04T09:47:13.867Z,29.22
2018-07-04T09:49:54.228Z,29.37
2018-07-04T09:52:34.483Z,29.49
2018-07-04T09:55:14.813Z,29.70
2018-07-04T09:57:55.692Z,29.75
2018-07-04T10:00:40.078Z,29.76
2018-07-04T10:03:20.205Z,29.91
2018-07-04T10:06:00.357Z,29.76
2018-07-04T10:08:40.477Z,29.76
2018-07-04T10:11:20.689Z,30.10
2018-07-04T10:14:01.037Z,30.01
2018-07-04T10:16:43.696Z,29.91
2018-07-04T10:19:24.725Z,29.99
2018-07-04T10:22:05.443Z,30.30
2018-07-04T10:24:45.968Z,30.51
2018-07-04T10:27:26.252Z,30.70
2018-07-04T10:30:06.507Z,30.66
2018-07-04T10:32:46.726Z,30.91
2018-07-04T10:35:27.382Z,31.18
2018-07-04T10:38:07.531Z,31.27
2018-07-04T10:40:48.033Z,31.54
2018-07-04T10:43:28.218Z,31.69
2018-07-04T10:46:08.525Z,31.33
2018-07-04T10:48:48.657Z,31.48
2018-07-04T10:51:28.867Z,31.56
2018-07-04T10:54:09.389Z,31.58
2018-07-04T10:56:49.593Z,31.84
2018-07-04T10:59:31.860Z,31.99
2018-07-04T11:02:12.527Z,31.83
2018-07-04T11:04:52.954Z,31.85
2018-07-04T11:07:33.245Z,31.64
2018-07-04T11:10:13.567Z,31.35
2018-07-04T11:12:53.786Z,31.81
2018-07-04T11:15:34.372Z,32.02
2018-07-04T11:18:14.560Z,32.26
2018-07-04T11:20:54.865Z,32.32
2018-07-04T11:23:35.289Z,32.42
2018-07-04T11:26:15.787Z,32.71
2018-07-04T11:28:56.361Z,32.86
2018-07-04T11:31:36.465Z,32.87
2018-07-04T11:34:16.975Z,32.81
2018-07-04T11:36:57.416Z,32.52
2018-07-04T11:39:37.657Z,32.58
2018-07-04T11:42:18.723Z,32.81
2018-07-04T11:44:59.442Z,32.75
2018-07-04T11:47:27.422Z,33.01
2018-07-04T11:49:55.833Z,33.24
2018-07-04T11:52:23.976Z,33.35
2018-07-04T11:55:16.217Z,33.29
2018-07-04T11:57:44.571Z,32.90
2018-07-04T12:00:12.563Z,32.99
2018-07-04T12:02:40.522Z,33.19
2018-07-04T12:05:20.802Z,33.18
2018-07-04T12:07:49.024Z,33.23
2018-07-04T12:10:17.149Z,33.53
2018-07-04T12:12:45.110Z,33.85
2018-07-04T12:15:13.091Z,33.96
2018-07-04T12:17:41.113Z,34.02
2018-07-04T12:20:09.077Z,33.77
2018-07-04T12:22:37.177Z,33.99
2018-07-04T12:25:05.203Z,34.08
2018-07-04T12:27:33.212Z,34.23
2018-07-04T12:30:01.703Z,34.45
2018-07-04T12:32:30.188Z,34.63
2018-07-04T12:34:58.247Z,34.77
2018-07-04T12:37:26.309Z,34.59
2018-07-04T12:39:56.089Z,34.73
2018-07-04T12:42:25.750Z,34.13
2018-07-04T12:44:56.398Z,34.42
2018-07-04T12:47:26.258Z,34.58
2018-07-04T12:49:55.785Z,34.14
2018-07-04T12:52:23.851Z,34.37
2018-07-04T12:55:04.229Z,34.42
2018-07-04T12:57:45.113Z,34.68
2018-07-04T13:00:25.366Z,34.44
2018-07-04T13:03:05.668Z,34.55
2018-07-04T13:05:46.270Z,34.65
2018-07-04T13:08:26.525Z,34.39
2018-07-04T13:11:06.835Z,34.30
2018-07-04T13:13:47.513Z,34.24
2018-07-04T13:16:27.656Z,34.16
2018-07-04T13:19:08.046Z,34.25
2018-07-04T13:21:48.168Z,34.41
2018-07-04T13:24:28.586Z,34.57
2018-07-04T13:27:08.834Z,34.65
2018-07-04T13:29:49.465Z,34.72
2018-07-04T13:32:29.596Z,34.94
2018-07-04T13:35:11.632Z,34.61
2018-07-04T13:37:51.872Z,34.96
2018-07-04T13:40:32.138Z,35.29
2018-07-04T13:43:12.558Z,35.36
2018-07-04T13:45:53.386Z,35.38
2018-07-04T13:48:33.619Z,35.40
2018-07-04T13:51:13.945Z,35.31
2018-07-04T13:53:54.483Z,35.20
2018-07-04T13:56:34.953Z,35.13
2018-07-04T13:59:15.610Z,35.34
2018-07-04T14:01:55.814Z,35.34
2018-07-04T14:04:36.757Z,35.17
2018-07-04T14:07:17.349Z,34.91
2018-07-04T14:09:57.495Z,35.04
2018-07-04T14:12:37.694Z,35.11
2018-07-04T14:15:17.776Z,35.12
2018-07-04T14:17:58.249Z,35.30
2018-07-04T14:20:38.446Z,35.38
2018-07-04T14:23:18.736Z,35.29
2018-07-04T14:25:59.305Z,34.66
2018-07-04T14:28:39.576Z,34.17
2018-07-04T14:31:19.950Z,33.95
2018-07-04T14:34:00.395Z,33.55
2018-07-04T14:36:40.633Z,33.88
2018-07-04T14:39:20.790Z,34.26
2018-07-04T14:42:01.419Z,34.68
2018-07-04T14:44:41.770Z,34.92
2018-07-04T14:47:22.280Z,35.06
2018-07-04T14:50:02.560Z,35.19
2018-07-04T14:52:42.858Z,35.38
2018-07-04T14:55:23.370Z,35.02
2018-07-04T14:58:03.487Z,34.74
2018-07-04T15:00:43.625Z,35.09
2018-07-04T15:03:23.851Z,35.20
2018-07-04T15:06:04.368Z,34.98
2018-07-04T15:08:44.894Z,35.05
2018-07-04T15:11:25.257Z,35.23
2018-07-04T15:14:05.444Z,35.44
2018-07-04T15:16:45.574Z,35.44
2018-07-04T15:19:26.273Z,35.45
2018-07-04T15:22:07.062Z,35.26
2018-07-04T15:24:47.367Z,35.39
2018-07-04T15:27:27.825Z,35.15
2018-07-04T15:30:08.190Z,34.98
2018-07-04T15:32:48.288Z,34.63
2018-07-04T15:35:28.398Z,34.89
2018-07-04T15:38:08.704Z,35.05
2018-07-04T15:40:48.996Z,35.02
2018-07-04T15:43:29.359Z,35.08
2018-07-04T15:46:09.601Z,35.00
2018-07-04T15:48:49.880Z,34.76
2018-07-04T15:51:30.201Z,34.68
2018-07-04T15:54:10.547Z,34.75
2018-07-04T15:56:50.822Z,34.70
2018-07-04T15:59:31.579Z,34.46
2018-07-04T16:02:12.149Z,34.38
2018-07-04T16:04:52.398Z,34.09
2018-07-04T16:07:32.643Z,34.06
2018-07-04T16:10:13.055Z,33.98
2018-07-04T16:12:53.411Z,33.72
2018-07-04T16:15:33.765Z,33.73
2018-07-04T16:18:14.214Z,33.78
2018-07-04T16:20:54.724Z,33.70
2018-07-04T16:23:35.332Z,33.67
2018-07-04T16:26:15.771Z,33.67
2018-07-04T16:28:56.470Z,33.67
2018-07-04T16:31:36.778Z,33.58
2018-07-04T16:34:17.531Z,33.58
2018-07-04T16:36:58.000Z,33.70
2018-07-04T16:39:38.434Z,33.59
2018-07-04T16:42:18.914Z,33.71
2018-07-04T16:44:59.959Z,33.35
2018-07-04T16:47:40.331Z,33.29
2018-07-04T16:50:20.591Z,33.18
2018-07-04T16:53:00.900Z,33.21
2018-07-04T16:55:41.264Z,33.24
2018-07-04T16:58:21.578Z,33.19
2018-07-04T17:01:01.885Z,33.24
2018-07-04T17:03:42.463Z,33.23
2018-07-04T17:06:22.765Z,33.26
2018-07-04T17:09:03.445Z,33.18
2018-07-04T17:11:43.738Z,33.14
2018-07-04T17:14:23.965Z,33.16
2018-07-04T17:17:04.197Z,33.11
2018-07-04T17:19:44.380Z,33.03
2018-07-04T17:22:24.736Z,32.89
2018-07-04T17:25:11.536Z,32.78
2018-07-04T17:27:51.740Z,32.69
2018-07-04T17:30:32.373Z,32.61
2018-07-04T17:33:12.727Z,32.60
2018-07-04T17:35:53.317Z,32.56
2018-07-04T17:38:33.781Z,32.43
2018-07-04T17:41:14.821Z,32.33
2018-07-04T17:43:55.293Z,32.25
2018-07-04T17:46:35.493Z,32.10
2018-07-04T17:49:16.141Z,31.99
2018-07-04T17:51:56.381Z,32.04
2018-07-04T17:54:37.723Z,32.04
2018-07-04T17:57:18.547Z,32.04
2018-07-04T17:59:58.643Z,32.03
2018-07-04T18:02:39.212Z,32.00
2018-07-04T18:05:19.309Z,31.96
2018-07-04T18:07:59.682Z,31.95
2018-07-04T18:10:40.039Z,31.84
2018-07-04T18:13:20.318Z,31.75
2018-07-04T18:16:00.558Z,31.69
2018-07-04T18:18:40.684Z,31.68
2018-07-04T18:21:26.726Z,31.54
2018-07-04T18:24:08.649Z,31.45
2018-07-04T18:26:49.043Z,31.38
2018-07-04T18:29:29.233Z,31.22
2018-07-04T18:32:09.565Z,31.14
2018-07-04T18:34:52.429Z,30.97
2018-07-04T18:37:32.796Z,30.83
2018-07-04T18:40:13.311Z,30.70
2018-07-04T18:42:53.486Z,30.56
2018-07-04T18:45:33.831Z,30.46
2018-07-04T18:48:14.101Z,30.32
2018-07-04T18:50:54.551Z,30.21
2018-07-04T18:53:34.609Z,30.13
2018-07-04T18:56:15.177Z,30.04
2018-07-04T18:58:55.323Z,29.96
2018-07-04T19:01:35.610Z,29.83
2018-07-04T19:04:15.673Z,29.67
2018-07-04T19:06:55.761Z,29.59
2018-07-04T19:09:36.089Z,29.48
2018-07-04T19:12:16.253Z,29.36
2018-07-04T19:14:56.629Z,29.22
2018-07-04T19:17:37.715Z,29.10
2018-07-04T19:20:18.525Z,28.94
2018-07-04T19:22:58.693Z,28.80
2018-07-04T19:25:39.232Z,28.63
2018-07-04T19:28:19.629Z,28.53
2018-07-04T19:30:59.987Z,28.45
2018-07-04T19:33:40.357Z,28.33
2018-07-04T19:36:27.585Z,28.14
2018-07-04T19:39:08.117Z,27.98
2018-07-04T19:41:49.494Z,27.91
2018-07-04T19:44:30.055Z,27.88
2018-07-04T19:47:10.460Z,27.81
2018-07-04T19:49:50.977Z,27.71
2018-07-04T19:52:31.227Z,27.56
2018-07-04T19:55:11.609Z,27.39
2018-07-04T19:57:53.521Z,27.24
2018-07-04T20:00:33.985Z,27.12
2018-07-04T20:03:14.229Z,27.00
2018-07-04T20:05:54.354Z,26.90
2018-07-04T20:08:34.579Z,26.76
2018-07-04T20:11:15.417Z,26.51
2018-07-04T20:13:55.718Z,26.37
2018-07-04T20:16:36.293Z,26.30
2018-07-04T20:19:16.667Z,26.17
2018-07-04T20:21:56.955Z,26.12
2018-07-04T20:24:37.538Z,26.00
2018-07-04T20:27:18.147Z,25.81
2018-07-04T20:29:58.215Z,25.70
2018-07-04T20:32:38.594Z,25.56
2018-07-04T20:35:18.959Z,25.53
2018-07-04T20:37:59.053Z,25.55
2018-07-04T20:40:39.945Z,25.49
2018-07-04T20:43:20.307Z,25.35
2018-07-04T20:46:00.772Z,25.08
2018-07-04T20:48:41.270Z,24.74
2018-07-04T20:51:21.332Z,24.69
2018-07-04T20:54:01.583Z,24.65
2018-07-04T20:56:41.889Z,24.71
2018-07-04T20:59:22.502Z,24.65
2018-07-04T21:02:02.780Z,24.64
2018-07-04T21:04:43.209Z,24.56
2018-07-04T21:07:23.298Z,24.50
2018-07-04T21:10:03.557Z,24.47
2018-07-04T21:12:43.660Z,24.34
2018-07-04T21:15:23.793Z,24.23
2018-07-04T21:18:04.167Z,24.17
2018-07-04T21:20:44.410Z,23.90
2018-07-04T21:23:25.625Z,23.82
2018-07-04T21:26:06.335Z,23.71
2018-07-04T21:28:46.508Z,23.64
2018-07-04T21:31:26.648Z,23.59
2018-07-04T21:34:07.077Z,23.55
2018-07-04T21:36:47.333Z,23.46
2018-07-04T21:39:27.470Z,23.40
2018-07-04T21:42:07.557Z,23.37
2018-07-04T21:44:47.600Z,23.31
2018-07-04T21:47:27.833Z,23.26
2018-07-04T21:50:08.148Z,23.21
2018-07-04T21:52:48.225Z,23.18
2018-07-04T21:55:28.421Z,23.13
2018-07-04T21:58:08.527Z,23.10
2018-07-04T22:00:49.204Z,23.04
2018-07-04T22:03:29.490Z,22.99
2018-07-04T22:06:12.215Z,22.92
2018-07-04T22:08:52.337Z,22.85
2018-07-04T22:11:32.426Z,22.79
2018-07-04T22:14:12.542Z,22.65
2018-07-04T22:16:52.603Z,22.56
2018-07-04T22:19:33.139Z,22.50
2018-07-04T22:22:13.213Z,22.43
2018-07-04T22:24:53.473Z,22.37
2018-07-04T22:27:33.577Z,22.32
2018-07-04T22:30:13.789Z,22.26
2018-07-04T22:32:53.854Z,22.18
2018-07-04T22:35:34.217Z,22.11
2018-07-04T22:38:14.405Z,22.01
2018-07-04T22:40:54.514Z,21.93
2018-07-04T22:43:34.891Z,21.87
2018-07-04T22:46:15.205Z,21.83
2018-07-04T22:48:58.006Z,21.79
2018-07-04T22:51:38.240Z,21.74
2018-07-04T22:54:18.496Z,21.69
2018-07-04T22:56:58.567Z,21.62
2018-07-04T22:59:38.746Z,21.53
2018-07-04T23:02:19.145Z,21.44
2018-07-04T23:04:59.335Z,21.36
2018-07-04T23:07:39.418Z,21.28
2018-07-04T23:10:19.525Z,21.24
2018-07-04T23:12:59.638Z,21.16
2018-07-04T23:15:39.682Z,21.08
2018-07-04T23:18:20.105Z,20.97
2018-07-04T23:21:00.305Z,20.91
2018-07-04T23:23:40.413Z,20.85
2018-07-04T23:26:20.441Z,20.82
2018-07-04T23:29:00.678Z,20.77
2018-07-04T23:31:43.413Z,20.73
2018-07-04T23:34:23.634Z,20.66
2018-07-04T23:37:04.677Z,20.60
2018-07-04T23:39:45.338Z,20.54
2018-07-04T23:42:25.462Z,20.46
2018-07-04T23:45:05.778Z,20.45
2018-07-04T23:47:46.214Z,20.37
2018-07-04T23:50:26.637Z,20.28
2018-07-04T23:53:06.801Z,20.22
2018-07-04T23:55:47.233Z,20.19
2018-07-04T23:58:27.281Z,20.14
